British Tenacity — MDTE9 — position and weather

sailwx.info

Track history (hours):
 
Tides and Currents Weather Stations Pressure Air Temp Water Temp Dewpoint Dewpoint Depression Visibility Wind Speed Wind Dir Waves Ship Positions

British Tenacity

Last reported at 2014-Jul-30 21:22 UTC. Time now 2014-Aug-01 12:00 UTC.
Position N 70°41' E 023°36'.

Type: Ship (hazmat cat C). MMSI: 235825000.

Date/timePositionNaut miles runAvg speedWind from/ knotsBaromVisibWave heightAir tempDewpointWater temp
2014-Jul-30 21:22N 70°41' E 023°36'4 4.6
2014-Jul-30 20:30N 70°41' E 023°24'0 0.1
2014-Jul-30 19:26N 70°41' E 023°24'0 0.1
2014-Jul-30 18:07N 70°41' E 023°24'0 0.0
2014-Jul-30 16:21N 70°41' E 023°24'0 0.0
2014-Jul-30 09:26N 70°41' E 023°24'0 0.0
2014-Jul-30 08:09N 70°41' E 023°24'0 0.1
2014-Jul-30 06:31N 70°41' E 023°24'5 8.8
2014-Jul-30 06:00N 70°36' E 023°24'5 7.3 110 / 81012.810.8 0.514.5 5.4 8.0
2014-Jul-30 05:21N 70°41' E 023°24'0 0.0
2014-Jul-30 04:05N 70°41' E 023°24'0 0.0
2014-Jul-30 03:17N 70°41' E 023°24'0 0.0
2014-Jul-30 02:32N 70°41' E 023°24'0 0.0
2014-Jul-29 21:33N 70°41' E 023°24'3 1.2
2014-Jul-29 19:31N 70°43' E 023°27'36811.0
2014-Jul-28 10:00N 67°24' E 009°00'49011.4 050 / 41013.810.8 1.014.012.215.0
2014-Jul-26 15:05N 61°10' W 003°11'14413.5
2014-Jul-26 04:27N 59°20' W 006°18'1414.1
2014-Jul-26 03:29N 59°09' W 006°33'1314.0
2014-Jul-26 02:33N 58°58' W 006°44'1413.8
2014-Jul-26 01:33N 58°45' W 006°55'916.7
2014-Jul-26 01:00N 58°36' W 007°00'4 9.7 1017.410.8 16.516.216.0
2014-Jul-26 00:33N 58°33' W 007°05'1313.0
2014-Jul-25 23:33N 58°21' W 007°15'5112.8
2014-Jul-25 19:33N 57°37' W 008°07'10913.4
2014-Jul-25 11:25N 55°53' W 007°09'1214.2
2014-Jul-25 10:34N 55°42' W 006°58'1413.4
2014-Jul-25 09:31N 55°30' W 006°46'1313.2
2014-Jul-25 08:33N 55°27' W 006°24'1212.4
2014-Jul-25 07:33N 55°24' W 006°03'1211.9
2014-Jul-25 06:33N 55°14' W 005°51'1313.0
2014-Jul-25 05:34N 55°04' W 005°38'1413.6
2014-Jul-25 04:33N 54°53' W 005°24'1514.9
2014-Jul-25 03:33N 54°41' W 005°09'1413.5
2014-Jul-25 02:33N 54°27' W 005°06'1414.4
2014-Jul-25 01:33N 54°13' W 005°07'1614.1
2014-Jul-25 00:26N 53°57' W 005°07'4214.4
2014-Jul-24 21:31N 53°39' W 004°03'1313.5
2014-Jul-24 20:33N 53°34' W 003°43'1312.9
2014-Jul-24 19:30N 53°32' W 003°20'9 9.1
2014-Jul-24 18:33N 53°30' W 003°06'  
Track history (hours):
 
Tides and Currents Weather Stations Pressure Air Temp Water Temp Dewpoint Dewpoint Depression Visibility Wind Speed Wind Dir Waves Ship Positions

British Tenacity

Last reported at 2014-Jul-30 21:22 UTC. Time now 2014-Aug-01 12:00 UTC.
Position N 70°41' E 023°36'.

Type: Ship (hazmat cat C). MMSI: 235825000.

Date/timePositionNaut miles runAvg speedWind from/ knotsBaromVisibWave heightAir tempDewpointWater temp
2014-Jul-30 21:22N 70°41' E 023°36'4 4.6
2014-Jul-30 20:30N 70°41' E 023°24'0 0.1
2014-Jul-30 19:26N 70°41' E 023°24'0 0.1
2014-Jul-30 18:07N 70°41' E 023°24'0 0.0
2014-Jul-30 16:21N 70°41' E 023°24'0 0.0
2014-Jul-30 09:26N 70°41' E 023°24'0 0.0
2014-Jul-30 08:09N 70°41' E 023°24'0 0.1
2014-Jul-30 06:31N 70°41' E 023°24'5 8.8
2014-Jul-30 06:00N 70°36' E 023°24'5 7.3 110 / 81012.810.8 0.514.5 5.4 8.0
2014-Jul-30 05:21N 70°41' E 023°24'0 0.0
2014-Jul-30 04:05N 70°41' E 023°24'0 0.0
2014-Jul-30 03:17N 70°41' E 023°24'0 0.0
2014-Jul-30 02:32N 70°41' E 023°24'0 0.0
2014-Jul-29 21:33N 70°41' E 023°24'3 1.2
2014-Jul-29 19:31N 70°43' E 023°27'36811.0
2014-Jul-28 10:00N 67°24' E 009°00'49011.4 050 / 41013.810.8 1.014.012.215.0
2014-Jul-26 15:05N 61°10' W 003°11'14413.5
2014-Jul-26 04:27N 59°20' W 006°18'1414.1
2014-Jul-26 03:29N 59°09' W 006°33'1314.0
2014-Jul-26 02:33N 58°58' W 006°44'1413.8
2014-Jul-26 01:33N 58°45' W 006°55'916.7
2014-Jul-26 01:00N 58°36' W 007°00'4 9.7 1017.410.8 16.516.216.0
2014-Jul-26 00:33N 58°33' W 007°05'1313.0
2014-Jul-25 23:33N 58°21' W 007°15'5112.8
2014-Jul-25 19:33N 57°37' W 008°07'10913.4
2014-Jul-25 11:25N 55°53' W 007°09'1214.2
2014-Jul-25 10:34N 55°42' W 006°58'1413.4
2014-Jul-25 09:31N 55°30' W 006°46'1313.2
2014-Jul-25 08:33N 55°27' W 006°24'1212.4
2014-Jul-25 07:33N 55°24' W 006°03'1211.9
2014-Jul-25 06:33N 55°14' W 005°51'1313.0
2014-Jul-25 05:34N 55°04' W 005°38'1413.6
2014-Jul-25 04:33N 54°53' W 005°24'1514.9
2014-Jul-25 03:33N 54°41' W 005°09'1413.5
2014-Jul-25 02:33N 54°27' W 005°06'1414.4
2014-Jul-25 01:33N 54°13' W 005°07'1614.1
2014-Jul-25 00:26N 53°57' W 005°07'4214.4
2014-Jul-24 21:31N 53°39' W 004°03'1313.5
2014-Jul-24 20:33N 53°34' W 003°43'1312.9
2014-Jul-24 19:30N 53°32' W 003°20'9 9.1
2014-Jul-24 18:33N 53°30' W 003°06'  

Dump ship's entire track history